Time;durP1;ratioP1;P1;durP2;ratioP2;P2;SDS_P1;SDS_P2;PMS_P1;PMS_P2;Temp;Humidity;BMP_temperature;BMP_pressure;BME280_temperature;BME280_humidity;BME280_pressure;Samples;Min_cycle;Max_cycle;Signal;HPM_P1;HPM_P2
2022/02/23 00:02:20;;;;;;;;;;;6.00;99.90;;;;;;5055435;28;19966;-80
2022/02/23 00:04:46;;;;;;;;;;;6.00;99.90;;;;;;5022611;28;20344;-80
2022/02/23 00:07:12;;;;;;;;;;;6.00;99.90;;;;;;5050847;28;19916;-80
2022/02/23 00:09:37;;;;;;;;;;;6.00;99.90;;;;;;5051046;28;19932;-80
2022/02/23 00:12:03;;;;;;;;;;;6.00;99.90;;;;;;5052399;28;19913;-81
2022/02/23 00:14:28;;;;;;;;;;;6.10;99.90;;;;;;5034849;28;19917;-79
2022/02/23 00:16:54;;;;;;;;;;;6.10;99.90;;;;;;5050396;28;19956;-80
2022/02/23 00:19:20;;;;;;;;;;;6.10;99.90;;;;;;5039486;28;19921;-80
2022/02/23 00:21:45;;;;;;;;;;;6.10;99.90;;;;;;5049179;28;19917;-80
2022/02/23 00:24:11;;;;;;;;;;;6.10;99.90;;;;;;5050799;28;19920;-81
2022/02/23 00:26:36;;;;;;;;;;;6.10;99.90;;;;;;5045399;28;19925;-80
2022/02/23 00:29:03;;;;;;;;;;;6.10;99.90;;;;;;5050056;28;19913;-80
2022/02/23 00:31:29;;;;;;;;;;;6.10;99.90;;;;;;5050829;28;20020;-80
2022/02/23 00:33:54;;;;;;;;;;;6.10;99.90;;;;;;5030736;28;19999;-80
2022/02/23 00:36:20;;;;;;;;;;;6.10;99.90;;;;;;5049919;28;19920;-80
2022/02/23 00:38:46;;;;;;;;;;;6.10;99.90;;;;;;5045720;28;20329;-80
2022/02/23 00:41:11;;;;;;;;;;;6.00;99.90;;;;;;5033225;28;19920;-81
2022/02/23 00:43:37;;;;;;;;;;;6.00;99.90;;;;;;5033309;28;19920;-81
2022/02/23 00:46:02;;;;;;;;;;;6.00;99.90;;;;;;5050083;28;19934;-80
2022/02/23 00:48:28;;;;;;;;;;;5.90;99.90;;;;;;5050264;28;19913;-81
2022/02/23 00:50:54;;;;;;;;;;;5.80;99.90;;;;;;5030777;28;20075;-80
2022/02/23 00:53:19;;;;;;;;;;;5.80;99.90;;;;;;5030528;28;19921;-81
2022/02/23 00:55:45;;;;;;;;;;;5.70;99.90;;;;;;5031800;28;19952;-81
2022/02/23 00:58:10;;;;;;;;;;;5.70;99.90;;;;;;5056038;28;19924;-81
2022/02/23 01:00:36;;;;;;;;;;;5.60;99.90;;;;;;5066805;28;19916;-81
2022/02/23 01:03:02;;;;;;;;;;;5.50;99.90;;;;;;5033611;28;19952;-81
2022/02/23 01:05:27;;;;;;;;;;;5.50;99.90;;;;;;5046798;28;19959;-81
2022/02/23 01:07:53;;;;;;;;;;;5.50;99.90;;;;;;5044778;28;19921;-81
2022/02/23 01:10:19;;;;;;;;;;;5.40;99.90;;;;;;5050121;28;20000;-81
2022/02/23 01:12:45;;;;;;;;;;;5.40;99.90;;;;;;5033824;28;20003;-80
2022/02/23 01:15:11;;;;;;;;;;;5.30;99.90;;;;;;5050108;28;20007;-80
2022/02/23 01:17:37;;;;;;;;;;;5.30;99.90;;;;;;5017045;28;19917;-81
2022/02/23 01:20:03;;;;;;;;;;;5.30;99.90;;;;;;5033241;28;19913;-81
2022/02/23 01:22:29;;;;;;;;;;;5.20;99.90;;;;;;5051183;28;19978;-80
2022/02/23 01:24:55;;;;;;;;;;;5.20;99.90;;;;;;5061856;28;19913;-81
2022/02/23 01:27:20;;;;;;;;;;;5.20;99.90;;;;;;5030077;28;19916;-81
2022/02/23 01:29:46;;;;;;;;;;;5.10;99.90;;;;;;5013711;28;19924;-80
2022/02/23 01:32:11;;;;;;;;;;;5.10;99.90;;;;;;5045779;28;19970;-80
2022/02/23 01:34:37;;;;;;;;;;;5.10;99.90;;;;;;5029711;28;19917;-81
2022/02/23 01:37:03;;;;;;;;;;;5.00;99.90;;;;;;5045770;28;19935;-81
2022/02/23 01:39:29;;;;;;;;;;;4.90;99.90;;;;;;5047210;28;19913;-80
2022/02/23 01:41:54;;;;;;;;;;;4.90;99.90;;;;;;5033420;28;20006;-79
2022/02/23 01:44:20;;;;;;;;;;;4.80;99.90;;;;;;5031957;28;20304;-79
2022/02/23 01:46:46;;;;;;;;;;;4.80;99.90;;;;;;5034644;28;19970;-80
2022/02/23 01:49:11;;;;;;;;;;;4.70;99.90;;;;;;5036712;28;19920;-80
2022/02/23 01:51:37;;;;;;;;;;;4.70;99.90;;;;;;5036828;28;19917;-81
2022/02/23 01:54:02;;;;;;;;;;;4.70;99.90;;;;;;5028897;28;19921;-81
2022/02/23 01:56:28;;;;;;;;;;;4.60;99.90;;;;;;5035736;28;20267;-81
2022/02/23 01:58:54;;;;;;;;;;;4.60;99.90;;;;;;5034530;28;19939;-81
2022/02/23 02:01:19;;;;;;;;;;;4.50;99.90;;;;;;5034498;28;19927;-81
2022/02/23 02:03:45;;;;;;;;;;;4.50;99.90;;;;;;5051650;28;19925;-83
2022/02/23 02:06:11;;;;;;;;;;;4.40;99.90;;;;;;5053105;28;19924;-81
2022/02/23 02:08:36;;;;;;;;;;;4.40;99.90;;;;;;5053268;28;19912;-81
2022/02/23 02:11:02;;;;;;;;;;;4.30;99.90;;;;;;5035625;28;19917;-81
2022/02/23 02:13:27;;;;;;;;;;;4.20;99.90;;;;;;5023954;28;19923;-81
2022/02/23 02:15:53;;;;;;;;;;;4.20;99.90;;;;;;5037573;28;19925;-81
2022/02/23 02:18:19;;;;;;;;;;;4.10;99.90;;;;;;5036147;28;19924;-81
2022/02/23 02:20:44;;;;;;;;;;;4.00;99.90;;;;;;5035535;28;20565;-81
2022/02/23 02:23:10;;;;;;;;;;;4.00;99.90;;;;;;5061505;28;19932;-80
2022/02/23 02:25:35;;;;;;;;;;;3.90;99.90;;;;;;5050984;28;19920;-81
2022/02/23 02:28:04;;;;;;;;;;;3.80;99.90;;;;;;5035941;28;20382;-81
2022/02/23 02:30:30;;;;;;;;;;;3.80;99.90;;;;;;5036434;28;19921;-81
2022/02/23 02:32:55;;;;;;;;;;;3.70;99.90;;;;;;5035624;28;20003;-82
2022/02/23 02:35:21;;;;;;;;;;;3.60;99.90;;;;;;5052452;28;19913;-81
2022/02/23 02:37:47;;;;;;;;;;;3.60;99.90;;;;;;5036019;28;20434;-81
2022/02/23 02:40:12;;;;;;;;;;;3.50;99.90;;;;;;5032897;28;19917;-81
2022/02/23 02:42:38;;;;;;;;;;;3.50;99.90;;;;;;5040324;28;20291;-81
2022/02/23 02:45:04;;;;;;;;;;;3.50;99.90;;;;;;5035368;28;19913;-81
2022/02/23 02:47:29;;;;;;;;;;;3.40;99.90;;;;;;5036223;28;20530;-81
2022/02/23 02:49:55;;;;;;;;;;;3.40;99.90;;;;;;5035996;28;19913;-81
2022/02/23 02:52:20;;;;;;;;;;;3.30;99.90;;;;;;5036094;28;19913;-81
2022/02/23 02:54:46;;;;;;;;;;;3.30;99.90;;;;;;5016048;28;20376;-81
2022/02/23 02:57:12;;;;;;;;;;;3.20;99.90;;;;;;5009406;28;20014;-81
2022/02/23 02:59:37;;;;;;;;;;;3.20;99.90;;;;;;5035211;28;19917;-81
2022/02/23 03:02:03;;;;;;;;;;;3.20;99.90;;;;;;5052560;28;19924;-81
2022/02/23 03:04:29;;;;;;;;;;;3.10;99.90;;;;;;5035826;28;20007;-81
2022/02/23 03:06:54;;;;;;;;;;;3.10;99.90;;;;;;5051211;28;20008;-81
2022/02/23 03:09:20;;;;;;;;;;;3.10;99.90;;;;;;5035045;28;19917;-81
2022/02/23 03:11:45;;;;;;;;;;;3.00;99.90;;;;;;5035927;28;19923;-81
2022/02/23 03:14:11;;;;;;;;;;;3.00;99.90;;;;;;5034597;28;19963;-82
2022/02/23 03:16:36;;;;;;;;;;;3.00;99.90;;;;;;5036470;28;19917;-81
2022/02/23 03:19:02;;;;;;;;;;;2.90;99.90;;;;;;5035298;28;20024;-81
2022/02/23 03:21:28;;;;;;;;;;;2.90;99.90;;;;;;5035601;28;20271;-81
2022/02/23 03:23:53;;;;;;;;;;;2.90;99.90;;;;;;5034039;28;19956;-81
2022/02/23 03:26:19;;;;;;;;;;;2.80;99.90;;;;;;5050049;28;19924;-81
2022/02/23 03:28:44;;;;;;;;;;;2.80;99.90;;;;;;5018612;28;19917;-81
2022/02/23 03:31:11;;;;;;;;;;;2.80;99.90;;;;;;5051306;28;20062;-81
2022/02/23 03:33:43;;;;;;;;;;;2.70;99.90;;;;;;5035012;28;19913;-81
2022/02/23 03:36:13;;;;;;;;;;;2.70;99.90;;;;;;5019376;28;19917;-81
2022/02/23 03:38:38;;;;;;;;;;;2.70;99.90;;;;;;5035138;28;19966;-81
2022/02/23 03:41:04;;;;;;;;;;;2.60;99.90;;;;;;5052932;28;19986;-81
2022/02/23 03:43:31;;;;;;;;;;;2.60;99.90;;;;;;5051796;28;19931;-81
2022/02/23 03:45:57;;;;;;;;;;;2.50;99.90;;;;;;5027735;28;19991;-82
2022/02/23 03:48:22;;;;;;;;;;;2.50;99.90;;;;;;5034941;28;19952;-81
2022/02/23 03:50:48;;;;;;;;;;;2.50;99.90;;;;;;5035016;28;19916;-81
2022/02/23 03:53:14;;;;;;;;;;;2.40;99.90;;;;;;5049431;28;19920;-81
2022/02/23 03:55:41;;;;;;;;;;;2.40;99.90;;;;;;5061448;28;19921;-81
2022/02/23 03:58:08;;;;;;;;;;;2.40;99.90;;;;;;5034349;28;20589;-81
2022/02/23 04:00:34;;;;;;;;;;;2.40;99.90;;;;;;5039712;28;19912;-81
2022/02/23 04:02:59;;;;;;;;;;;2.30;99.90;;;;;;5024005;28;20020;-81
2022/02/23 04:05:25;;;;;;;;;;;2.30;99.90;;;;;;5030893;28;19943;-81
2022/02/23 04:07:50;;;;;;;;;;;2.30;99.90;;;;;;5038551;28;19922;-81
2022/02/23 04:10:19;;;;;;;;;;;2.20;99.90;;;;;;5046352;28;20012;-81
2022/02/23 04:12:46;;;;;;;;;;;2.20;99.90;;;;;;5051241;28;19919;-81
2022/02/23 04:15:14;;;;;;;;;;;2.20;99.90;;;;;;5051017;28;19959;-81
2022/02/23 04:17:40;;;;;;;;;;;2.20;99.90;;;;;;5034061;28;19928;-81
2022/02/23 04:20:07;;;;;;;;;;;2.20;99.90;;;;;;5049125;28;19913;-81
2022/02/23 04:22:33;;;;;;;;;;;2.20;99.90;;;;;;5051025;28;19951;-81
2022/02/23 04:24:59;;;;;;;;;;;2.30;99.90;;;;;;5045314;28;19916;-81
2022/02/23 04:27:24;;;;;;;;;;;2.20;99.90;;;;;;5050281;28;19913;-82
2022/02/23 04:29:50;;;;;;;;;;;2.20;99.90;;;;;;5017820;28;19916;-81
2022/02/23 04:32:15;;;;;;;;;;;2.20;99.90;;;;;;5017863;28;20282;-81
2022/02/23 04:34:41;;;;;;;;;;;2.20;99.90;;;;;;5024483;28;19964;-81
2022/02/23 04:37:07;;;;;;;;;;;2.20;99.90;;;;;;5030684;28;20005;-81
2022/02/23 04:39:33;;;;;;;;;;;2.20;99.90;;;;;;5050649;28;19923;-80
2022/02/23 04:41:58;;;;;;;;;;;2.10;99.90;;;;;;5049770;28;20339;-81
2022/02/23 04:44:24;;;;;;;;;;;2.10;99.90;;;;;;5031422;28;19925;-81
2022/02/23 04:46:50;;;;;;;;;;;2.20;99.90;;;;;;5050819;28;19916;-81
2022/02/23 04:49:15;;;;;;;;;;;2.10;99.90;;;;;;5033812;28;19920;-81
2022/02/23 04:51:41;;;;;;;;;;;2.10;99.90;;;;;;5051957;28;19920;-81
2022/02/23 04:54:06;;;;;;;;;;;2.10;99.90;;;;;;5033014;28;19912;-81
2022/02/23 04:56:32;;;;;;;;;;;2.10;99.90;;;;;;5018715;28;20012;-81
2022/02/23 04:58:58;;;;;;;;;;;2.10;99.90;;;;;;5030162;28;20287;-81
2022/02/23 05:01:24;;;;;;;;;;;2.10;99.90;;;;;;5018662;28;19948;-81
2022/02/23 05:03:49;;;;;;;;;;;2.10;99.90;;;;;;5016706;28;19921;-81
2022/02/23 05:06:15;;;;;;;;;;;2.00;99.90;;;;;;5050057;28;19921;-81
2022/02/23 05:08:41;;;;;;;;;;;2.00;99.90;;;;;;5048893;28;19928;-82
2022/02/23 05:11:06;;;;;;;;;;;2.00;99.90;;;;;;5050094;28;19956;-81
2022/02/23 05:13:32;;;;;;;;;;;2.00;99.90;;;;;;5049943;28;19912;-82
2022/02/23 05:15:59;;;;;;;;;;;1.90;99.90;;;;;;5048566;28;19920;-81
2022/02/23 05:18:27;;;;;;;;;;;1.90;99.90;;;;;;5032916;28;19966;-82
2022/02/23 05:20:56;;;;;;;;;;;1.80;99.90;;;;;;5046327;28;19913;-81
2022/02/23 05:23:22;;;;;;;;;;;1.80;99.90;;;;;;5046001;28;19917;-81
2022/02/23 05:25:47;;;;;;;;;;;1.80;99.90;;;;;;5042593;28;19963;-81
2022/02/23 05:28:13;;;;;;;;;;;1.80;99.90;;;;;;5017965;28;19960;-81
2022/02/23 05:30:39;;;;;;;;;;;1.70;99.90;;;;;;5058483;28;19960;-81
2022/02/23 05:33:04;;;;;;;;;;;1.70;99.90;;;;;;5049423;28;20404;-81
2022/02/23 05:35:30;;;;;;;;;;;1.70;99.90;;;;;;5029573;28;19921;-81
2022/02/23 05:37:56;;;;;;;;;;;1.70;99.90;;;;;;5028270;28;19940;-82
2022/02/23 05:40:21;;;;;;;;;;;1.70;99.90;;;;;;5031905;28;19925;-81
2022/02/23 05:42:47;;;;;;;;;;;1.70;99.90;;;;;;5045492;28;19921;-81
2022/02/23 05:45:13;;;;;;;;;;;1.70;99.90;;;;;;5044064;28;20364;-81
2022/02/23 05:47:38;;;;;;;;;;;1.60;99.90;;;;;;5035473;28;20441;-82
2022/02/23 05:50:04;;;;;;;;;;;1.60;99.90;;;;;;5053620;28;19917;-81
2022/02/23 05:52:30;;;;;;;;;;;1.60;99.90;;;;;;5051324;28;19944;-81
2022/02/23 05:54:56;;;;;;;;;;;1.50;99.90;;;;;;5051570;28;19959;-82
2022/02/23 05:57:21;;;;;;;;;;;1.50;99.90;;;;;;5035776;28;19917;-81
2022/02/23 05:59:47;;;;;;;;;;;1.50;99.90;;;;;;5033069;28;20032;-81
2022/02/23 06:02:13;;;;;;;;;;;1.50;99.90;;;;;;5051472;28;19913;-81
2022/02/23 06:04:39;;;;;;;;;;;1.50;99.90;;;;;;5057616;28;20959;-81
2022/02/23 06:07:04;;;;;;;;;;;1.40;99.90;;;;;;5050479;28;19920;-81
2022/02/23 06:09:33;;;;;;;;;;;1.40;99.90;;;;;;5038780;28;19921;-81
2022/02/23 06:11:59;;;;;;;;;;;1.40;99.90;;;;;;5042124;28;19935;-81
2022/02/23 06:14:25;;;;;;;;;;;1.40;99.90;;;;;;5018565;28;19999;-81
2022/02/23 06:16:51;;;;;;;;;;;1.40;99.90;;;;;;5049233;28;19917;-81
2022/02/23 06:19:16;;;;;;;;;;;1.40;99.90;;;;;;5049671;28;19971;-82
2022/02/23 06:21:42;;;;;;;;;;;1.40;99.90;;;;;;5031850;28;19932;-81
2022/02/23 06:24:08;;;;;;;;;;;1.40;99.90;;;;;;5046079;28;20406;-81
2022/02/23 06:26:34;;;;;;;;;;;1.40;99.90;;;;;;5046725;28;19935;-81
2022/02/23 06:28:59;;;;;;;;;;;1.40;99.90;;;;;;5050881;28;20431;-81
2022/02/23 06:31:25;;;;;;;;;;;1.50;99.90;;;;;;5016370;28;19916;-81
2022/02/23 06:33:50;;;;;;;;;;;1.50;99.90;;;;;;5038693;28;19979;-81
2022/02/23 06:36:16;;;;;;;;;;;1.50;99.90;;;;;;5064823;28;19913;-80
2022/02/23 06:38:42;;;;;;;;;;;1.60;99.90;;;;;;5041268;28;19913;-81
2022/02/23 06:41:09;;;;;;;;;;;1.60;99.90;;;;;;5053105;28;19921;-80
2022/02/23 06:43:35;;;;;;;;;;;1.50;99.90;;;;;;5052207;28;20398;-81
2022/02/23 06:46:01;;;;;;;;;;;1.60;99.90;;;;;;5052986;28;19920;-81
2022/02/23 06:48:28;;;;;;;;;;;1.60;99.90;;;;;;5051838;28;19912;-81
2022/02/23 06:50:54;;;;;;;;;;;1.60;99.90;;;;;;5054092;28;19962;-81
2022/02/23 06:53:20;;;;;;;;;;;1.70;99.90;;;;;;5036850;28;19921;-81
2022/02/23 06:55:46;;;;;;;;;;;1.70;99.90;;;;;;5067117;28;19963;-82
2022/02/23 06:58:11;;;;;;;;;;;1.70;99.90;;;;;;5052364;28;19913;-81
2022/02/23 07:00:38;;;;;;;;;;;1.80;99.90;;;;;;5039092;28;20292;-81
2022/02/23 07:03:03;;;;;;;;;;;1.80;99.90;;;;;;5065386;28;19971;-81
2022/02/23 07:05:29;;;;;;;;;;;1.90;99.90;;;;;;5050445;28;19920;-81
2022/02/23 07:07:55;;;;;;;;;;;1.90;99.90;;;;;;5053538;28;19919;-81
2022/02/23 07:10:25;;;;;;;;;;;1.90;99.90;;;;;;5049120;28;19909;-81
2022/02/23 07:12:51;;;;;;;;;;;2.00;99.90;;;;;;5042742;28;20385;-81
2022/02/23 07:15:17;;;;;;;;;;;2.20;99.90;;;;;;5069856;28;20050;-81
2022/02/23 07:17:42;;;;;;;;;;;2.40;99.90;;;;;;5053774;28;19959;-81
2022/02/23 07:20:09;;;;;;;;;;;2.60;99.90;;;;;;5068885;28;19924;-81
2022/02/23 07:22:35;;;;;;;;;;;2.70;99.90;;;;;;5034978;28;19924;-81
2022/02/23 07:25:01;;;;;;;;;;;2.90;99.90;;;;;;5050811;28;20018;-81
2022/02/23 07:27:29;;;;;;;;;;;3.10;99.90;;;;;;5051599;28;19917;-81
2022/02/23 07:29:55;;;;;;;;;;;3.20;99.90;;;;;;5051967;28;20015;-81
2022/02/23 07:32:22;;;;;;;;;;;3.40;99.90;;;;;;5031718;28;20028;-81
2022/02/23 07:34:50;;;;;;;;;;;3.50;99.90;;;;;;5031698;28;19917;-81
2022/02/23 07:37:16;;;;;;;;;;;3.70;99.90;;;;;;5031053;28;19924;-81
2022/02/23 07:39:42;;;;;;;;;;;3.80;99.90;;;;;;5049514;28;19913;-81
2022/02/23 07:42:08;;;;;;;;;;;3.90;99.90;;;;;;5051851;28;19921;-81
2022/02/23 07:44:33;;;;;;;;;;;3.90;99.90;;;;;;5044923;28;19971;-81
2022/02/23 07:46:59;;;;;;;;;;;4.00;99.90;;;;;;5033428;28;19916;-80
2022/02/23 07:49:26;;;;;;;;;;;4.10;99.90;;;;;;5049655;28;19971;-80
2022/02/23 07:51:52;;;;;;;;;;;4.10;99.90;;;;;;5050144;28;19913;-81
2022/02/23 07:54:17;;;;;;;;;;;4.10;99.90;;;;;;5064685;28;19916;-80
2022/02/23 07:56:43;;;;;;;;;;;4.10;99.90;;;;;;5001395;28;19921;-81
2022/02/23 07:59:09;;;;;;;;;;;4.20;99.90;;;;;;5044071;28;20402;-81
2022/02/23 08:01:37;;;;;;;;;;;4.20;99.90;;;;;;5064408;28;19917;-81
2022/02/23 08:04:04;;;;;;;;;;;4.20;99.90;;;;;;5049292;28;19943;-80
2022/02/23 08:06:30;;;;;;;;;;;4.20;99.90;;;;;;5049507;28;19919;-81
2022/02/23 08:08:56;;;;;;;;;;;4.30;99.90;;;;;;5032846;28;19913;-80
2022/02/23 08:11:22;;;;;;;;;;;4.30;99.90;;;;;;5050111;28;20019;-80
2022/02/23 08:13:49;;;;;;;;;;;4.40;99.90;;;;;;5048444;28;19982;-81
2022/02/23 08:21:51;;;;;;;;;;;4.40;99.90;;;;;;5050019;28;19925;-81
2022/02/23 08:24:17;;;;;;;;;;;4.40;99.90;;;;;;5046775;28;19917;-81
2022/02/23 08:26:43;;;;;;;;;;;4.40;99.90;;;;;;5030288;28;19947;-80
2022/02/23 08:29:09;;;;;;;;;;;4.50;99.90;;;;;;5044512;28;19912;-80
2022/02/23 08:31:35;;;;;;;;;;;4.50;99.90;;;;;;5051029;28;19913;-80
2022/02/23 08:34:01;;;;;;;;;;;4.50;99.90;;;;;;5048649;28;19943;-80
2022/02/23 08:36:27;;;;;;;;;;;4.50;99.90;;;;;;5010737;28;19917;-80
2022/02/23 08:38:52;;;;;;;;;;;4.50;99.90;;;;;;5031584;28;19913;-81
2022/02/23 08:41:19;;;;;;;;;;;4.50;99.90;;;;;;5051083;28;19921;-80
2022/02/23 08:43:44;;;;;;;;;;;4.60;99.90;;;;;;5068616;28;19927;-81
2022/02/23 08:46:10;;;;;;;;;;;4.60;99.90;;;;;;5046432;28;19920;-81
2022/02/23 08:48:36;;;;;;;;;;;4.70;99.90;;;;;;5038571;28;20364;-81
2022/02/23 08:51:01;;;;;;;;;;;4.70;99.90;;;;;;5050369;28;19987;-81
2022/02/23 08:53:29;;;;;;;;;;;4.80;99.90;;;;;;5047093;28;20351;-81
2022/02/23 08:55:55;;;;;;;;;;;4.80;99.90;;;;;;5044989;28;19917;-81
2022/02/23 08:58:20;;;;;;;;;;;4.80;99.90;;;;;;5049865;28;19923;-81
2022/02/23 09:00:48;;;;;;;;;;;4.90;99.90;;;;;;5044461;28;19921;-84
2022/02/23 09:03:14;;;;;;;;;;;5.00;99.90;;;;;;5030474;28;19979;-82
2022/02/23 09:05:40;;;;;;;;;;;5.00;99.90;;;;;;5044067;28;19925;-80
2022/02/23 09:08:05;;;;;;;;;;;5.00;99.90;;;;;;5049927;28;19935;-80
2022/02/23 09:10:31;;;;;;;;;;;5.10;99.90;;;;;;5031606;28;20394;-80
2022/02/23 09:12:57;;;;;;;;;;;5.20;99.90;;;;;;5048403;28;19912;-82
2022/02/23 09:15:22;;;;;;;;;;;5.20;99.90;;;;;;5034562;28;19918;-81
2022/02/23 09:17:48;;;;;;;;;;;5.20;99.90;;;;;;5063170;28;20605;-81
2022/02/23 09:20:13;;;;;;;;;;;5.30;99.90;;;;;;5049587;28;20011;-81
2022/02/23 09:22:39;;;;;;;;;;;5.30;99.90;;;;;;5047110;28;19921;-81
2022/02/23 09:25:05;;;;;;;;;;;5.40;99.90;;;;;;5044807;28;19960;-81
2022/02/23 09:27:31;;;;;;;;;;;5.40;99.90;;;;;;5044563;28;19925;-81
2022/02/23 09:29:56;;;;;;;;;;;5.40;99.90;;;;;;5048462;28;20334;-81
2022/02/23 09:32:22;;;;;;;;;;;5.40;99.90;;;;;;5047726;28;20283;-82
2022/02/23 09:34:48;;;;;;;;;;;5.40;99.90;;;;;;5029624;28;19948;-81
2022/02/23 09:37:14;;;;;;;;;;;5.40;99.90;;;;;;5042683;28;19925;-81
2022/02/23 09:39:40;;;;;;;;;;;5.40;99.90;;;;;;5063062;28;20381;-81
2022/02/23 09:42:06;;;;;;;;;;;5.40;99.90;;;;;;5031953;28;19952;-81
2022/02/23 09:44:32;;;;;;;;;;;5.30;99.90;;;;;;5050324;28;19928;-82
2022/02/23 09:46:59;;;;;;;;;;;5.40;99.90;;;;;;5042383;28;19917;-81
2022/02/23 09:49:25;;;;;;;;;;;5.40;99.90;;;;;;5043774;28;20671;-81
2022/02/23 09:51:50;;;;;;;;;;;5.40;99.90;;;;;;5044170;28;19964;-82
2022/02/23 09:54:17;;;;;;;;;;;5.50;99.90;;;;;;5045039;28;19964;-81
2022/02/23 09:56:45;;;;;;;;;;;5.40;99.90;;;;;;5044400;28;19921;-81
2022/02/23 09:59:12;;;;;;;;;;;5.40;99.90;;;;;;5015654;28;19932;-81
2022/02/23 10:01:38;;;;;;;;;;;5.50;99.90;;;;;;5049894;28;20473;-82
2022/02/23 10:04:03;;;;;;;;;;;5.50;99.90;;;;;;5048692;28;20016;-81
2022/02/23 10:06:34;;;;;;;;;;;5.50;99.90;;;;;;5041672;28;19923;-82
2022/02/23 10:09:01;;;;;;;;;;;5.60;99.90;;;;;;5050824;28;19920;-81
2022/02/23 10:11:28;;;;;;;;;;;5.70;99.90;;;;;;5056077;28;19912;-81
2022/02/23 10:13:54;;;;;;;;;;;5.90;99.90;;;;;;5047112;28;19923;-82
2022/02/23 10:16:20;;;;;;;;;;;6.00;99.90;;;;;;5021295;28;20011;-82
2022/02/23 10:18:46;;;;;;;;;;;6.10;99.90;;;;;;5052241;28;19974;-82
2022/02/23 10:21:15;;;;;;;;;;;6.20;99.90;;;;;;5054855;28;19924;-82
2022/02/23 10:23:41;;;;;;;;;;;6.30;99.90;;;;;;5037189;28;20341;-82
2022/02/23 10:26:12;;;;;;;;;;;6.30;99.90;;;;;;5018970;28;19921;-81
2022/02/23 10:28:38;;;;;;;;;;;6.30;99.90;;;;;;5050562;28;19920;-82
2022/02/23 10:31:07;;;;;;;;;;;6.40;99.90;;;;;;5036480;28;20417;-82
2022/02/23 10:33:38;;;;;;;;;;;6.40;99.90;;;;;;5054547;28;19920;-82
2022/02/23 10:36:11;;;;;;;;;;;6.50;99.90;;;;;;5054006;28;19913;-82
2022/02/23 10:38:42;;;;;;;;;;;6.60;99.90;;;;;;5053914;28;19927;-82
2022/02/23 10:41:30;;;;;;;;;;;6.70;99.90;;;;;;5043891;28;20066;-82
2022/02/23 10:43:55;;;;;;;;;;;6.80;99.90;;;;;;5029973;28;19924;-83
2022/02/23 10:46:23;;;;;;;;;;;6.90;99.90;;;;;;5053379;28;19913;-82
2022/02/23 10:48:55;;;;;;;;;;;7.00;99.90;;;;;;5058365;28;20295;-82
2022/02/23 10:51:25;;;;;;;;;;;7.00;99.90;;;;;;5053179;28;20598;-81
2022/02/23 10:53:51;;;;;;;;;;;7.00;99.90;;;;;;5053360;28;19921;-81
2022/02/23 10:56:28;;;;;;;;;;;7.00;99.90;;;;;;5047132;28;19917;-82
2022/02/23 10:59:04;;;;;;;;;;;7.00;99.90;;;;;;5052574;28;20282;-82
2022/02/23 11:01:30;;;;;;;;;;;7.00;99.90;;;;;;5048854;28;19917;-82
2022/02/23 11:03:56;;;;;;;;;;;7.10;99.90;;;;;;5053964;28;19917;-82
2022/02/23 11:06:25;;;;;;;;;;;7.10;99.90;;;;;;5047194;28;19913;-81
2022/02/23 11:08:52;;;;;;;;;;;7.20;99.90;;;;;;5051096;28;19948;-82
2022/02/23 11:11:18;;;;;;;;;;;7.20;99.90;;;;;;5013201;28;20683;-81
2022/02/23 11:13:44;;;;;;;;;;;7.30;99.90;;;;;;5049595;28;20252;-82
2022/02/23 11:16:12;;;;;;;;;;;7.40;99.90;;;;;;5031922;28;20004;-82
2022/02/23 11:18:39;;;;;;;;;;;7.50;99.90;;;;;;5046273;28;19913;-82
2022/02/23 11:21:05;;;;;;;;;;;7.50;99.90;;;;;;5036521;28;20644;-81
2022/02/23 11:23:33;;;;;;;;;;;7.50;99.90;;;;;;5047468;28;20008;-81
2022/02/23 11:25:59;;;;;;;;;;;7.60;99.90;;;;;;5058194;28;19913;-81
2022/02/23 11:28:29;;;;;;;;;;;7.70;99.90;;;;;;5058204;28;19967;-82
2022/02/23 11:30:59;;;;;;;;;;;7.70;99.90;;;;;;5034465;28;20387;-82
2022/02/23 11:33:43;;;;;;;;;;;7.70;99.90;;;;;;5062366;28;20280;-82
2022/02/23 11:36:21;;;;;;;;;;;7.60;99.90;;;;;;5043566;28;19944;-82
2022/02/23 11:38:48;;;;;;;;;;;7.60;99.90;;;;;;5055545;28;19913;-81
2022/02/23 11:41:32;;;;;;;;;;;7.50;99.90;;;;;;5077703;22;19929;-86
2022/02/23 11:44:10;;;;;;;;;;;7.50;99.90;;;;;;5052387;28;20374;-86
2022/02/23 11:46:54;;;;;;;;;;;7.60;99.90;;;;;;5043420;28;19921;-86
2022/02/23 11:49:21;;;;;;;;;;;7.70;99.90;;;;;;5048229;28;19920;-87
2022/02/23 11:52:25;;;;;;;;;;;7.70;99.90;;;;;;5044953;28;19951;-88
2022/02/23 11:55:09;;;;;;;;;;;7.80;99.90;;;;;;5063117;28;19919;-87
2022/02/23 12:00:44;;;;;;;;;;;7.80;99.90;;;;;;5033359;28;19921;-87
2022/02/23 12:03:09;;;;;;;;;;;7.90;99.90;;;;;;5048962;28;19920;-88
2022/02/23 12:05:37;;;;;;;;;;;7.90;99.90;;;;;;5037658;28;19913;-87
2022/02/23 12:08:03;;;;;;;;;;;7.90;99.90;;;;;;5032338;28;20090;-87
2022/02/23 12:10:29;;;;;;;;;;;7.90;99.90;;;;;;5043734;28;19920;-87
2022/02/23 12:12:56;;;;;;;;;;;7.90;99.90;;;;;;5059980;28;19913;-86
2022/02/23 12:15:26;;;;;;;;;;;7.90;99.90;;;;;;5045325;28;20421;-86
2022/02/23 12:18:10;;;;;;;;;;;7.90;99.90;;;;;;5033733;28;19912;-87
2022/02/23 12:20:36;;;;;;;;;;;7.90;99.90;;;;;;5049847;28;19920;-85
2022/02/23 12:23:06;;;;;;;;;;;7.90;99.90;;;;;;5050370;28;19913;-87
2022/02/23 12:25:55;;;;;;;;;;;7.90;99.90;;;;;;5047316;28;20381;-87
2022/02/23 12:28:22;;;;;;;;;;;7.90;99.90;;;;;;5067866;28;20003;-87
2022/02/23 12:31:14;;;;;;;;;;;7.80;99.90;;;;;;5050546;28;20393;-88
2022/02/23 12:33:42;;;;;;;;;;;7.90;99.90;;;;;;5023151;28;20008;-87
2022/02/23 12:36:22;;;;;;;;;;;7.90;99.90;;;;;;5045986;28;19917;-87
2022/02/23 12:38:48;;;;;;;;;;;7.90;99.90;;;;;;5045541;28;20010;-86
2022/02/23 12:41:15;;;;;;;;;;;7.90;99.90;;;;;;5041758;28;19929;-88
2022/02/23 12:43:41;;;;;;;;;;;8.00;99.90;;;;;;5047252;28;20516;-87
2022/02/23 12:46:08;;;;;;;;;;;8.10;99.90;;;;;;5017703;28;19971;-85
2022/02/23 12:48:35;;;;;;;;;;;8.20;99.90;;;;;;5029357;28;19939;-86
2022/02/23 12:51:01;;;;;;;;;;;8.20;99.90;;;;;;5039374;28;20321;-87
2022/02/23 12:53:35;;;;;;;;;;;8.20;99.90;;;;;;5025956;28;20330;-86
2022/02/23 12:56:14;;;;;;;;;;;8.30;99.90;;;;;;5048451;28;20019;-87
2022/02/23 12:58:39;;;;;;;;;;;8.30;99.90;;;;;;5061048;28;19917;-87
2022/02/23 13:01:05;;;;;;;;;;;8.30;99.90;;;;;;5014847;28;20379;-86
2022/02/23 13:03:30;;;;;;;;;;;8.30;99.90;;;;;;5059718;28;20004;-87
2022/02/23 13:05:56;;;;;;;;;;;8.30;99.90;;;;;;5044469;28;19967;-86
2022/02/23 13:08:22;;;;;;;;;;;8.30;99.90;;;;;;5028338;28;19920;-87
2022/02/23 13:10:57;;;;;;;;;;;8.20;99.90;;;;;;5046218;28;19917;-87
2022/02/23 13:13:43;;;;;;;;;;;8.20;99.90;;;;;;5029524;28;19928;-88
2022/02/23 13:16:09;;;;;;;;;;;8.30;99.90;;;;;;5027188;28;20502;-87
2022/02/23 13:18:42;;;;;;;;;;;8.30;99.90;;;;;;5036062;28;20004;-85
2022/02/23 13:21:09;;;;;;;;;;;8.30;99.90;;;;;;5058993;28;19921;-87
2022/02/23 13:23:53;;;;;;;;;;;8.40;99.90;;;;;;5060084;28;19962;-87
2022/02/23 13:26:20;;;;;;;;;;;8.50;99.90;;;;;;5041163;28;19920;-85
2022/02/23 13:28:59;;;;;;;;;;;8.60;99.90;;;;;;5046855;28;19955;-86
2022/02/23 13:31:34;;;;;;;;;;;8.60;99.90;;;;;;5043309;28;19943;-87
2022/02/23 13:34:18;;;;;;;;;;;8.70;99.90;;;;;;5054755;28;19913;-87
2022/02/23 13:36:44;;;;;;;;;;;8.70;99.90;;;;;;5042309;28;19917;-87
2022/02/23 13:39:36;;;;;;;;;;;8.70;99.90;;;;;;5060668;28;19916;-89
2022/02/23 13:42:09;;;;;;;;;;;8.70;99.90;;;;;;5002006;28;19917;-86
2022/02/23 13:44:39;;;;;;;;;;;8.60;99.90;;;;;;5046390;28;19917;-88
2022/02/23 13:47:07;;;;;;;;;;;8.40;99.90;;;;;;5042198;28;19920;-87
2022/02/23 13:49:34;;;;;;;;;;;8.30;99.90;;;;;;5040692;28;20015;-87
2022/02/23 13:52:00;;;;;;;;;;;8.30;99.90;;;;;;5026156;28;19913;-87
2022/02/23 13:54:26;;;;;;;;;;;8.20;99.90;;;;;;5036623;28;20004;-88
2022/02/23 13:56:52;;;;;;;;;;;8.20;99.90;;;;;;5033797;28;20430;-88
2022/02/23 13:59:20;;;;;;;;;;;8.30;99.90;;;;;;5055881;28;19952;-87
2022/02/23 14:02:06;;;;;;;;;;;8.30;99.90;;;;;;5043210;28;19967;-86
2022/02/23 14:04:47;;;;;;;;;;;8.30;99.90;;;;;;5064974;28;19917;-86
2022/02/23 14:07:23;;;;;;;;;;;8.20;99.90;;;;;;5063568;28;19959;-86
2022/02/23 14:09:49;;;;;;;;;;;8.20;99.90;;;;;;5033740;28;19913;-84
2022/02/23 14:12:15;;;;;;;;;;;8.10;99.90;;;;;;5042767;28;19913;-87
2022/02/23 14:14:42;;;;;;;;;;;8.00;99.90;;;;;;5053670;28;19963;-86
2022/02/23 14:17:12;;;;;;;;;;;8.00;99.90;;;;;;5033643;28;19917;-87
2022/02/23 14:19:39;;;;;;;;;;;7.90;99.90;;;;;;5016898;28;19913;-89
2022/02/23 14:22:06;;;;;;;;;;;7.90;99.90;;;;;;5049764;28;20481;-88
2022/02/23 14:24:34;;;;;;;;;;;7.80;99.90;;;;;;5047354;28;19921;-83
2022/02/23 14:27:02;;;;;;;;;;;7.80;99.90;;;;;;5040758;28;19920;-85
2022/02/23 14:29:29;;;;;;;;;;;7.80;99.90;;;;;;5046704;28;19913;-86
2022/02/23 14:31:57;;;;;;;;;;;7.80;99.90;;;;;;5034629;28;19921;-89
2022/02/23 14:34:30;;;;;;;;;;;7.90;99.90;;;;;;5054274;28;20028;-87
2022/02/23 14:37:00;;;;;;;;;;;7.80;99.90;;;;;;5034053;28;20046;-85
2022/02/23 14:39:27;;;;;;;;;;;7.80;99.90;;;;;;5017593;28;19918;-86
2022/02/23 14:41:53;;;;;;;;;;;7.80;99.90;;;;;;5043757;28;19924;-88